Time;durP1;ratioP1;P1;durP2;ratioP2;P2;SDS_P1;SDS_P2;PMS_P1;PMS_P2;Temp;Humidity;BMP_temperature;BMP_pressure;BME280_temperature;BME280_humidity;BME280_pressure;Samples;Min_cycle;Max_cycle;Signal;HPM_P1;HPM_P2
2023/04/13 00:00:28;;;;;;;4.18;2.03;;;;;;;;;;6211203;23;20009;-80
2023/04/13 00:02:55;;;;;;;6.32;2.03;;;;;;;;;;6211287;23;20590;-80
2023/04/13 00:05:22;;;;;;;2.72;0.80;;;;;;;;;;6210936;23;20435;-79
2023/04/13 00:07:48;;;;;;;3.55;0.73;;;;;;;;;;6209143;23;20856;-79
2023/04/13 00:10:17;;;;;;;1.88;0.70;;;;;;;;;;6211747;23;20031;-80
2023/04/13 00:12:47;;;;;;;1.42;0.40;;;;;;;;;;6210688;23;20013;-80
2023/04/13 00:15:18;;;;;;;2.00;0.40;;;;;;;;;;6210796;23;20005;-79
2023/04/13 00:17:44;;;;;;;1.23;0.40;;;;;;;;;;6209126;23;20016;-79
2023/04/13 00:20:13;;;;;;;2.47;0.50;;;;;;;;;;6210875;23;20359;-79
2023/04/13 00:22:40;;;;;;;2.58;0.63;;;;;;;;;;6211196;23;20036;-79
2023/04/13 00:25:07;;;;;;;2.63;0.60;;;;;;;;;;6210926;23;20079;-79
2023/04/13 00:27:34;;;;;;;1.25;0.40;;;;;;;;;;6210327;23;20009;-79
2023/04/13 00:30:00;;;;;;;4.35;0.60;;;;;;;;;;6211095;23;20436;-79
2023/04/13 00:32:26;;;;;;;4.05;0.40;;;;;;;;;;6211481;23;20079;-79
2023/04/13 00:34:52;;;;;;;5.57;0.55;;;;;;;;;;6210911;23;20011;-79
2023/04/13 00:37:19;;;;;;;2.08;0.40;;;;;;;;;;6211058;23;20043;-79
2023/04/13 00:39:45;;;;;;;5.30;0.40;;;;;;;;;;6210994;23;20004;-79
2023/04/13 00:42:12;;;;;;;3.65;0.35;;;;;;;;;;6211705;23;20017;-79
2023/04/13 00:44:38;;;;;;;2.10;0.38;;;;;;;;;;6208766;23;20005;-79
2023/04/13 00:47:04;;;;;;;3.72;0.55;;;;;;;;;;6210488;23;20020;-79
2023/04/13 00:49:34;;;;;;;3.95;0.43;;;;;;;;;;6210198;23;20005;-79
2023/04/13 00:52:04;;;;;;;5.38;0.40;;;;;;;;;;6211376;23;20024;-79
2023/04/13 00:54:31;;;;;;;2.85;0.50;;;;;;;;;;6210408;23;20087;-79
2023/04/13 00:56:58;;;;;;;3.13;0.50;;;;;;;;;;6210820;23;20025;-79
2023/04/13 00:59:28;;;;;;;3.05;0.50;;;;;;;;;;6208834;23;20008;-79
2023/04/13 01:02:00;;;;;;;5.95;0.60;;;;;;;;;;6211380;23;20020;-79
2023/04/13 01:04:29;;;;;;;6.05;1.58;;;;;;;;;;6210345;23;20079;-79
2023/04/13 01:07:13;;;;;;;6.15;1.83;;;;;;;;;;6210050;23;20092;-79
2023/04/13 01:09:58;;;;;;;3.90;1.20;;;;;;;;;;6210826;23;20039;-80
2023/04/13 01:12:28;;;;;;;3.70;0.63;;;;;;;;;;6213473;23;20020;-80
2023/04/13 01:14:58;;;;;;;4.05;0.63;;;;;;;;;;6212295;23;20015;-80
2023/04/13 01:17:25;;;;;;;4.63;0.50;;;;;;;;;;6210873;23;20012;-80
2023/04/13 01:19:55;;;;;;;1.60;0.40;;;;;;;;;;6211971;23;20012;-80
2023/04/13 01:22:24;;;;;;;2.95;0.50;;;;;;;;;;6212495;23;20009;-79
2023/04/13 01:24:56;;;;;;;1.85;0.52;;;;;;;;;;6211909;23;20004;-79
2023/04/13 01:27:45;;;;;;;3.55;0.73;;;;;;;;;;6212611;23;20005;-79
2023/04/13 01:30:12;;;;;;;5.78;0.70;;;;;;;;;;6212180;23;20008;-79
2023/04/13 01:32:39;;;;;;;5.47;0.73;;;;;;;;;;6212566;23;20013;-79
2023/04/13 01:35:09;;;;;;;3.42;0.60;;;;;;;;;;6212934;23;20088;-79
2023/04/13 01:37:35;;;;;;;2.78;0.63;;;;;;;;;;6213227;23;20009;-80
2023/04/13 01:40:04;;;;;;;4.75;1.13;;;;;;;;;;6210191;23;20031;-79
2023/04/13 01:42:31;;;;;;;3.58;0.80;;;;;;;;;;6212356;23;20008;-79
2023/04/13 01:44:57;;;;;;;5.28;0.90;;;;;;;;;;6211397;23;20055;-79
2023/04/13 01:47:24;;;;;;;6.70;1.20;;;;;;;;;;6179383;23;20024;-79
2023/04/13 01:49:57;;;;;;;3.92;0.90;;;;;;;;;;6181793;23;20043;-79
2023/04/13 01:52:24;;;;;;;5.30;1.05;;;;;;;;;;6181146;23;20606;-79
2023/04/13 01:54:50;;;;;;;4.30;0.90;;;;;;;;;;6181055;23;20092;-80
2023/04/13 01:57:17;;;;;;;4.13;1.08;;;;;;;;;;6182189;23;20028;-79
2023/04/13 01:59:43;;;;;;;8.07;1.10;;;;;;;;;;6182113;23;20008;-79
2023/04/13 02:02:15;;;;;;;5.63;1.27;;;;;;;;;;6182274;23;20009;-80
2023/04/13 02:04:41;;;;;;;3.80;0.98;;;;;;;;;;6181967;23;20040;-79
2023/04/13 02:07:07;;;;;;;5.55;1.48;;;;;;;;;;6181790;23;20009;-80
2023/04/13 02:09:34;;;;;;;4.25;1.10;;;;;;;;;;6180466;23;20478;-80
2023/04/13 02:12:00;;;;;;;3.28;0.95;;;;;;;;;;6181822;23;20032;-80
2023/04/13 02:14:26;;;;;;;5.32;1.13;;;;;;;;;;6182199;23;20005;-79
2023/04/13 02:16:52;;;;;;;4.60;1.00;;;;;;;;;;6179930;23;20368;-79
2023/04/13 02:19:19;;;;;;;5.30;1.13;;;;;;;;;;6180303;23;20013;-79
2023/04/13 02:21:45;;;;;;;5.10;1.08;;;;;;;;;;6181533;23;20092;-79
2023/04/13 02:24:11;;;;;;;5.82;1.05;;;;;;;;;;6181574;23;20028;-79
2023/04/13 02:26:37;;;;;;;3.88;1.17;;;;;;;;;;6181304;23;20306;-79
2023/04/13 02:29:04;;;;;;;4.75;1.00;;;;;;;;;;6180284;23;20067;-79
2023/04/13 02:31:30;;;;;;;7.03;1.38;;;;;;;;;;6180942;23;20660;-79
2023/04/13 02:33:57;;;;;;;6.80;1.48;;;;;;;;;;6181467;23;20428;-79
2023/04/13 02:36:23;;;;;;;3.40;1.42;;;;;;;;;;6180397;23;20028;-79
2023/04/13 02:38:49;;;;;;;8.73;2.53;;;;;;;;;;6181378;23;20451;-79
2023/04/13 02:41:21;;;;;;;4.85;1.80;;;;;;;;;;6180042;23;20017;-79
2023/04/13 02:43:48;;;;;;;4.28;1.20;;;;;;;;;;6180141;23;20360;-79
2023/04/13 02:46:14;;;;;;;2.70;0.85;;;;;;;;;;6186874;23;20676;-79
2023/04/13 02:48:41;;;;;;;3.75;0.70;;;;;;;;;;6184211;23;20008;-79
2023/04/13 02:51:07;;;;;;;4.10;0.85;;;;;;;;;;6211705;23;20471;-79
2023/04/13 02:53:33;;;;;;;7.10;1.48;;;;;;;;;;6184287;23;20008;-79
2023/04/13 02:55:59;;;;;;;5.63;1.02;;;;;;;;;;6211237;23;20359;-79
2023/04/13 02:58:25;;;;;;;4.15;1.45;;;;;;;;;;6210817;23;20012;-79
2023/04/13 03:00:52;;;;;;;9.63;2.63;;;;;;;;;;6211291;23;20008;-78
2023/04/13 03:03:19;;;;;;;11.02;2.33;;;;;;;;;;6210791;23;20064;-79
2023/04/13 03:05:45;;;;;;;5.72;1.50;;;;;;;;;;6211473;23;20060;-79
2023/04/13 03:08:11;;;;;;;9.48;2.53;;;;;;;;;;6184198;23;20020;-79
2023/04/13 03:10:37;;;;;;;7.75;2.40;;;;;;;;;;6211877;23;20008;-79
2023/04/13 03:13:03;;;;;;;7.97;1.88;;;;;;;;;;6210844;23;20000;-79
2023/04/13 03:15:29;;;;;;;6.82;1.85;;;;;;;;;;6211282;23;20318;-79
2023/04/13 03:17:58;;;;;;;8.02;2.38;;;;;;;;;;6210975;23;20019;-79
2023/04/13 03:20:27;;;;;;;6.07;2.35;;;;;;;;;;6210883;23;19997;-79
2023/04/13 03:22:54;;;;;;;9.73;2.20;;;;;;;;;;6211294;23;20008;-79
2023/04/13 03:25:20;;;;;;;7.95;1.80;;;;;;;;;;6211479;23;20075;-79
2023/04/13 03:27:46;;;;;;;5.72;1.75;;;;;;;;;;6211371;23;20013;-79
2023/04/13 03:30:12;;;;;;;5.05;1.40;;;;;;;;;;6211099;23;20000;-79
2023/04/13 03:32:38;;;;;;;4.00;1.60;;;;;;;;;;6211605;23;20035;-79
2023/04/13 03:35:05;;;;;;;7.32;2.00;;;;;;;;;;6210855;23;20005;-79
2023/04/13 03:37:31;;;;;;;5.13;1.60;;;;;;;;;;6184295;23;20530;-79
2023/04/13 03:39:58;;;;;;;5.00;1.35;;;;;;;;;;6183663;23;20054;-79
2023/04/13 03:42:24;;;;;;;4.20;1.10;;;;;;;;;;6211576;23;20820;-78
2023/04/13 03:44:50;;;;;;;11.40;2.08;;;;;;;;;;6183960;23;20005;-79
2023/04/13 03:47:16;;;;;;;3.30;1.00;;;;;;;;;;6210989;23;20078;-78
2023/04/13 03:49:42;;;;;;;7.90;1.92;;;;;;;;;;6210543;23;20742;-78
2023/04/13 03:52:08;;;;;;;9.45;1.08;;;;;;;;;;6211581;23;20051;-78
2023/04/13 03:54:34;;;;;;;7.18;1.38;;;;;;;;;;6210463;23;20036;-79
2023/04/13 03:57:01;;;;;;;5.30;1.38;;;;;;;;;;6184329;23;20020;-78
2023/04/13 03:59:27;;;;;;;7.20;1.27;;;;;;;;;;6210873;23;20008;-78
2023/04/13 04:01:53;;;;;;;5.05;1.40;;;;;;;;;;6211163;23;20128;-79
2023/04/13 04:04:20;;;;;;;6.40;1.60;;;;;;;;;;6210696;23;20090;-78
2023/04/13 04:06:46;;;;;;;7.30;1.60;;;;;;;;;;6210987;23;20091;-79
2023/04/13 04:09:12;;;;;;;6.97;1.30;;;;;;;;;;6183624;23;20420;-79
2023/04/13 04:11:38;;;;;;;5.95;1.40;;;;;;;;;;6184621;23;20024;-79
2023/04/13 04:14:04;;;;;;;6.13;1.40;;;;;;;;;;6211567;23;20055;-79
2023/04/13 04:16:30;;;;;;;3.88;1.10;;;;;;;;;;6210464;23;20032;-79
2023/04/13 04:18:56;;;;;;;4.85;1.48;;;;;;;;;;6184387;23;20012;-79
2023/04/13 04:21:22;;;;;;;4.20;1.10;;;;;;;;;;6183713;23;20459;-78
2023/04/13 04:23:48;;;;;;;7.07;2.83;;;;;;;;;;6211179;23;20009;-78
2023/04/13 04:26:14;;;;;;;10.10;3.50;;;;;;;;;;6210936;23;20028;-79
2023/04/13 04:28:40;;;;;;;9.13;2.63;;;;;;;;;;6210926;23;20005;-78
2023/04/13 04:31:09;;;;;;;10.15;4.43;;;;;;;;;;6210559;23;20348;-78
2023/04/13 04:33:37;;;;;;;7.13;3.60;;;;;;;;;;6211128;23;20746;-79
2023/04/13 04:36:03;;;;;;;9.60;3.75;;;;;;;;;;6210391;23;20019;-78
2023/04/13 04:38:31;;;;;;;10.82;3.95;;;;;;;;;;6210654;23;20727;-78
2023/04/13 04:40:58;;;;;;;10.88;3.80;;;;;;;;;;6210175;23;20008;-78
2023/04/13 04:43:28;;;;;;;9.35;3.35;;;;;;;;;;6211870;23;20424;-79
2023/04/13 04:45:56;;;;;;;9.00;3.25;;;;;;;;;;6185038;23;20087;-78
2023/04/13 04:48:23;;;;;;;8.27;4.15;;;;;;;;;;6212177;23;20061;-78
2023/04/13 04:50:51;;;;;;;7.72;3.63;;;;;;;;;;6185075;23;20708;-79
2023/04/13 04:53:17;;;;;;;9.38;4.95;;;;;;;;;;6211864;23;20298;-79
2023/04/13 04:55:45;;;;;;;11.90;2.83;;;;;;;;;;6212204;23;20487;-78
2023/04/13 04:58:11;;;;;;;6.97;2.40;;;;;;;;;;6184901;23;20032;-79
2023/04/13 05:00:37;;;;;;;6.53;2.60;;;;;;;;;;6211658;23;20009;-79
2023/04/13 05:03:03;;;;;;;7.43;2.72;;;;;;;;;;6212655;23;20004;-79
2023/04/13 05:05:30;;;;;;;7.35;2.42;;;;;;;;;;6185192;23;20005;-79
2023/04/13 05:07:56;;;;;;;9.82;2.78;;;;;;;;;;6185886;23;20016;-79
2023/04/13 05:10:23;;;;;;;10.15;3.53;;;;;;;;;;6212734;23;20658;-79
2023/04/13 05:12:49;;;;;;;9.18;3.08;;;;;;;;;;6212206;23;20020;-79
2023/04/13 05:15:16;;;;;;;8.07;2.22;;;;;;;;;;6212716;23;20458;-79
2023/04/13 05:17:45;;;;;;;7.65;2.47;;;;;;;;;;6212199;23;20008;-79
2023/04/13 05:20:12;;;;;;;12.15;4.93;;;;;;;;;;6186011;23;20032;-79
2023/04/13 05:22:38;;;;;;;8.52;4.43;;;;;;;;;;6185681;23;20063;-79
2023/04/13 05:25:05;;;;;;;10.07;4.68;;;;;;;;;;6213017;23;20005;-79
2023/04/13 05:27:31;;;;;;;10.60;5.88;;;;;;;;;;6212592;23;20013;-79
2023/04/13 05:29:57;;;;;;;14.15;6.90;;;;;;;;;;6212376;23;20817;-79
2023/04/13 05:32:23;;;;;;;11.63;6.78;;;;;;;;;;6211520;23;20722;-81
2023/04/13 05:34:50;;;;;;;15.18;7.13;;;;;;;;;;6211031;23;20058;-79
2023/04/13 05:37:16;;;;;;;16.98;8.27;;;;;;;;;;6211210;23;20067;-79
2023/04/13 05:45:08;;;;;;;15.57;6.65;;;;;;;;;;6152012;23;20457;-79
2023/04/13 05:47:34;;;;;;;12.88;4.43;;;;;;;;;;6150425;23;20025;-79
2023/04/13 05:50:22;;;;;;;10.75;3.70;;;;;;;;;;6151620;23;20321;-80
2023/04/13 05:52:58;;;;;;;;;;;;;;;;;;;;;
2023/04/13 05:55:48;;;;;;;11.57;4.88;;;;;;;;;;6174931;22;20115;-80
2023/04/13 06:06:04;;;;;;;10.88;3.75;;;;;;;;;;6206657;23;20032;-80
2023/04/13 06:17:53;;;;;;;;;;;;;;;;;;;;;
2023/04/13 09:22:01;;;;;;;7.32;1.25;;;;;;;;;;6207545;23;20017;-79
2023/04/13 09:25:00;;;;;;;10.88;1.38;;;;;;;;;;6147590;23;20029;-81
2023/04/13 09:28:11;;;;;;;7.10;0.90;;;;;;;;;;6123957;23;20009;-79
2023/04/13 09:40:37;;;;;;;;;;;;;;;;;;;;;
2023/04/13 09:43:11;;;;;;;11.30;1.27;;;;;;;;;;6118771;23;20024;-80
2023/04/13 09:46:24;;;;;;;6.60;0.90;;;;;;;;;;6118529;23;20049;-81
2023/04/13 09:49:10;;;;;;;4.20;0.53;;;;;;;;;;6143140;23;20036;-81
2023/04/13 09:52:08;;;;;;;5.68;0.77;;;;;;;;;;6138585;23;20240;-80
2023/04/13 09:55:13;;;;;;;5.15;0.70;;;;;;;;;;6152825;23;20019;-80
2023/04/13 09:57:56;;;;;;;3.75;0.98;;;;;;;;;;6154457;23;20009;-80
2023/04/13 10:00:48;;;;;;;8.35;1.10;;;;;;;;;;6181151;23;20813;-80
2023/04/13 10:03:25;;;;;;;5.80;0.97;;;;;;;;;;6118689;23;20346;-80
2023/04/13 10:06:03;;;;;;;11.68;1.65;;;;;;;;;;6177677;23;20459;-80
2023/04/13 10:11:28;;;;;;;9.35;1.10;;;;;;;;;;6144582;23;20067;-80
2023/04/13 10:14:07;;;;;;;9.20;1.20;;;;;;;;;;6170080;23;20039;-80
2023/04/13 10:16:58;;;;;;;7.90;1.05;;;;;;;;;;6180660;23;20017;-80
2023/04/13 10:19:30;;;;;;;9.68;1.38;;;;;;;;;;6204629;23;20070;-80
2023/04/13 10:22:03;;;;;;;8.95;1.33;;;;;;;;;;6211756;23;20008;-80
2023/04/13 10:24:38;;;;;;;8.45;1.58;;;;;;;;;;6212046;23;20645;-80
2023/04/13 10:27:31;;;;;;;7.43;1.20;;;;;;;;;;6119351;23;20017;-80
2023/04/13 10:29:59;;;;;;;7.28;1.30;;;;;;;;;;6114797;23;20018;-80
2023/04/13 10:32:30;;;;;;;7.03;0.90;;;;;;;;;;6119238;23;20037;-80
2023/04/13 10:35:08;;;;;;;7.25;0.95;;;;;;;;;;6118050;23;20022;-80
2023/04/13 10:37:45;;;;;;;6.20;1.45;;;;;;;;;;6119088;23;20010;-80
2023/04/13 10:40:13;;;;;;;9.55;1.20;;;;;;;;;;6118128;23;20048;-80
2023/04/13 10:42:51;;;;;;;6.95;0.95;;;;;;;;;;6118440;23;20105;-80
2023/04/13 10:45:25;;;;;;;5.13;0.70;;;;;;;;;;6118037;23;20014;-80
2023/04/13 10:48:00;;;;;;;4.72;0.70;;;;;;;;;;6118721;23;20022;-80
2023/04/13 10:50:38;;;;;;;5.10;0.60;;;;;;;;;;6117959;23;20414;-80
2023/04/13 10:53:10;;;;;;;5.50;0.70;;;;;;;;;;6173664;23;20004;-80
2023/04/13 10:55:44;;;;;;;5.20;0.70;;;;;;;;;;6210276;23;20016;-80
2023/04/13 10:58:17;;;;;;;6.45;1.00;;;;;;;;;;6179710;23;20013;-80
2023/04/13 11:00:56;;;;;;;5.68;1.35;;;;;;;;;;6180648;23;20020;-80
2023/04/13 11:03:31;;;;;;;4.07;0.80;;;;;;;;;;6180090;23;20043;-80
2023/04/13 11:06:13;;;;;;;;;;;;;;;;;;;;;
2023/04/13 11:08:55;;;;;;;4.45;0.60;;;;;;;;;;6211554;23;20111;-80
2023/04/13 11:11:47;;;;;;;4.53;0.80;;;;;;;;;;6177493;23;20024;-80
2023/04/13 11:14:22;;;;;;;3.53;0.75;;;;;;;;;;6173096;23;20753;-80
2023/04/13 11:16:53;;;;;;;4.93;0.95;;;;;;;;;;6210973;23;20427;-80
2023/04/13 11:19:38;;;;;;;3.78;0.60;;;;;;;;;;6183860;23;20024;-80
2023/04/13 11:22:14;;;;;;;5.38;0.73;;;;;;;;;;6184218;23;20385;-80
2023/04/13 11:28:27;;;;;;;8.07;0.98;;;;;;;;;;6210338;23;20005;-80
2023/04/13 11:31:11;;;;;;;;;;;;;;;;;;;;;
2023/04/13 11:34:04;;;;;;;4.15;1.02;;;;;;;;;;6211302;23;20080;-80
2023/04/13 11:36:49;;;;;;;7.53;1.35;;;;;;;;;;6183171;23;20020;-80
2023/04/13 11:39:20;;;;;;;5.00;0.80;;;;;;;;;;6183369;23;20021;-80
2023/04/13 11:42:06;;;;;;;5.93;0.50;;;;;;;;;;6117248;23;20065;-80
2023/04/13 11:44:41;;;;;;;3.20;0.50;;;;;;;;;;6117890;23;20669;-80
2023/04/13 11:47:26;;;;;;;3.80;0.60;;;;;;;;;;6118139;23;20029;-80
2023/04/13 11:50:28;;;;;;;;;;;;;;;;;;;;;
2023/04/13 11:53:20;;;;;;;3.70;0.40;;;;;;;;;;6117437;23;20089;-80
2023/04/13 11:56:09;;;;;;;5.57;0.88;;;;;;;;;;6117784;23;20398;-80
2023/04/13 11:58:47;;;;;;;3.28;0.50;;;;;;;;;;6118077;23;20828;-80
2023/04/13 12:01:35;;;;;;;2.80;0.35;;;;;;;;;;6117717;23;20029;-80
2023/04/13 12:07:47;;;;;;;4.97;0.60;;;;;;;;;;6059807;23;20018;-80
2023/04/13 12:13:44;;;;;;;5.30;0.63;;;;;;;;;;5976946;23;20506;-80
2023/04/13 12:17:01;;;;;;;1.55;0.40;;;;;;;;;;5999719;23;20024;-80
2023/04/13 12:20:16;;;;;;;;;;;;;;;;;;;;;
2023/04/13 12:23:03;;;;;;;9.05;0.60;;;;;;;;;;6117197;23;20040;-80
2023/04/13 12:29:22;;;;;;;7.03;1.05;;;;;;;;;;6117833;23;20065;-80
2023/04/13 12:32:12;;;;;;;3.85;0.85;;;;;;;;;;6088034;23;20022;-79
2023/04/13 12:38:06;;;;;;;3.83;0.68;;;;;;;;;;6210411;23;20014;-80
2023/04/13 12:40:40;;;;;;;7.90;0.85;;;;;;;;;;6182896;23;20116;-80
2023/04/13 12:43:11;;;;;;;7.05;0.98;;;;;;;;;;6183714;23;20008;-80
2023/04/13 12:45:56;;;;;;;;;;;;;;;;;;;;;
2023/04/13 12:48:43;;;;;;;;;;;;;;;;;;;;;
2023/04/13 12:51:21;;;;;;;8.43;0.90;;;;;;;;;;6210680;23;20026;-80
2023/04/13 12:54:11;;;;;;;;;;;;;;;;;;;;;
2023/04/13 13:02:24;;;;;;;5.45;0.68;;;;;;;;;;6140742;23;20335;-80
2023/04/13 13:05:12;;;;;;;7.00;0.80;;;;;;;;;;6210922;23;20016;-80
2023/04/13 13:10:49;;;;;;;3.28;0.60;;;;;;;;;;6204955;23;20155;-80
2023/04/13 13:13:23;;;;;;;3.67;0.82;;;;;;;;;;6183991;23;20207;-80
2023/04/13 13:16:18;;;;;;;4.43;0.77;;;;;;;;;;6185961;23;20021;-80
2023/04/13 13:19:02;;;;;;;2.88;0.70;;;;;;;;;;6176554;23;20025;-80
2023/04/13 13:21:58;;;;;;;;;;;;;;;;;;;;;
2023/04/13 13:24:53;;;;;;;;;;;;;;;;;;;;;
2023/04/13 13:30:22;;;;;;;5.20;0.45;;;;;;;;;;6211131;23;20020;-80
2023/04/13 13:33:07;;;;;;;;;;;;;;;;;;;;;
2023/04/13 13:42:39;;;;;;;2.45;0.55;;;;;;;;;;6206485;23;20048;-80
2023/04/13 13:51:49;;;;;;;;;;;;;;;;;;;;;
2023/04/13 14:00:54;;;;;;;4.68;0.80;;;;;;;;;;6177658;23;20024;-80
2023/04/13 14:03:58;;;;;;;6.03;0.75;;;;;;;;;;6031681;23;20023;-80
2023/04/13 14:25:57;;;;;;;3.08;0.60;;;;;;;;;;6176718;23;20161;-79
2023/04/13 14:29:00;;;;;;;4.15;0.70;;;;;;;;;;5975133;24;20027;-79
2023/04/13 14:37:32;;;;;;;3.38;0.70;;;;;;;;;;5993021;23;20022;-79
2023/04/13 14:40:20;;;;;;;5.88;0.93;;;;;;;;;;6058663;23;20046;-79
2023/04/13 14:46:12;;;;;;;;;;;;;;;;;;;;;
2023/04/13 14:49:22;;;;;;;4.40;0.88;;;;;;;;;;6073116;23;20747;-79
2023/04/13 14:52:16;;;;;;;5.15;0.77;;;;;;;;;;6225204;23;20316;-79
2023/04/13 14:55:14;;;;;;;3.65;0.55;;;;;;;;;;6235987;23;20465;-79
2023/04/13 14:57:46;;;;;;;4.07;0.80;;;;;;;;;;6226732;23;20016;-79
2023/04/13 15:00:21;;;;;;;;;;;;;;;;;;6198001;23;20016;-79
2023/04/13 15:03:07;;;;;;;6.20;1.02;;;;;;;;;;6194060;23;19916;-79
2023/04/13 15:05:49;;;;;;;3.90;0.63;;;;;;;;;;6195873;22;20040;-79
2023/04/13 15:11:53;;;;;;;;;;;;;;;;;;;;;
2023/04/13 15:20:22;;;;;;;6.57;0.63;;;;;;;;;;6183897;23;20018;-79
2023/04/13 15:23:12;;;;;;;5.95;0.60;;;;;;;;;;6213561;23;20035;-79
2023/04/13 15:26:00;;;;;;;3.90;0.70;;;;;;;;;;6198739;23;20436;-79
2023/04/13 15:28:46;;;;;;;6.18;0.68;;;;;;;;;;6240554;22;20008;-79
2023/04/13 15:31:17;;;;;;;4.90;0.73;;;;;;;;;;6214220;23;20018;-79
2023/04/13 15:33:51;;;;;;;2.65;0.70;;;;;;;;;;6241233;22;20010;-79
2023/04/13 15:36:30;;;;;;;;;;;;;;;;;;;;;
2023/04/13 15:39:03;;;;;;;4.40;0.68;;;;;;;;;;6241137;23;20092;-79
2023/04/13 15:41:31;;;;;;;4.63;0.80;;;;;;;;;;6241035;23;20016;-79
2023/04/13 15:44:21;;;;;;;6.78;1.40;;;;;;;;;;6213656;23;20011;-79
2023/04/13 15:46:52;;;;;;;6.68;0.88;;;;;;;;;;6240995;22;20012;-79
2023/04/13 15:52:13;;;;;;;4.88;0.70;;;;;;;;;;6241102;23;20016;-79
2023/04/13 15:54:42;;;;;;;4.97;0.77;;;;;;;;;;6214095;23;20023;-79
2023/04/13 15:57:18;;;;;;;6.78;0.60;;;;;;;;;;6241398;23;20475;-79
2023/04/13 16:09:28;;;;;;;;;;;;;;;;;;;;;
2023/04/13 16:15:06;;;;;;;5.82;0.82;;;;;;;;;;6117712;23;20093;-79
2023/04/13 16:17:32;;;;;;;4.88;0.50;;;;;;;;;;6087408;23;20023;-79
2023/04/13 16:24:18;;;;;;;7.30;0.80;;;;;;;;;;6086146;23;20201;-79
2023/04/13 16:26:47;;;;;;;3.15;0.50;;;;;;;;;;6083826;23;20016;-79
2023/04/13 16:29:27;;;;;;;6.20;0.80;;;;;;;;;;6146114;23;20437;-80
2023/04/13 16:32:16;;;;;;;6.50;0.98;;;;;;;;;;6147968;23;20350;-79
2023/04/13 16:35:38;;;;;;;6.97;0.70;;;;;;;;;;6122187;23;20089;-80
2023/04/13 16:53:54;;;;;;;;;;;;;;;;;;;;;
2023/04/13 16:59:34;;;;;;;;;;;;;;;;;;;;;
2023/04/13 17:02:21;;;;;;;6.63;1.30;;;;;;;;;;6179231;23;20019;-80
2023/04/13 17:05:07;;;;;;;2.85;0.70;;;;;;;;;;6164806;22;20015;-79
2023/04/13 17:07:36;;;;;;;7.18;1.02;;;;;;;;;;6246576;22;20004;-79
2023/04/13 17:10:03;;;;;;;9.45;3.10;;;;;;;;;;6244675;22;20050;-79
2023/04/13 17:12:31;;;;;;;15.18;2.53;;;;;;;;;;6273674;22;20011;-79
2023/04/13 17:15:05;;;;;;;8.13;1.90;;;;;;;;;;6272807;22;20015;-79
2023/04/13 17:17:33;;;;;;;4.22;1.25;;;;;;;;;;6246266;22;20024;-79
2023/04/13 17:20:00;;;;;;;6.85;3.20;;;;;;;;;;6245850;22;20061;-79
2023/04/13 17:22:31;;;;;;;4.53;1.73;;;;;;;;;;6243504;22;20051;-79
2023/04/13 17:25:05;;;;;;;11.45;3.75;;;;;;;;;;6245207;22;20019;-79
2023/04/13 17:27:50;;;;;;;5.18;1.73;;;;;;;;;;6272040;22;20003;-79
2023/04/13 17:30:24;;;;;;;4.53;1.27;;;;;;;;;;6243379;22;20016;-79
2023/04/13 17:32:58;;;;;;;5.15;0.70;;;;;;;;;;6244019;22;20011;-80
2023/04/13 17:47:44;;;;;;;7.75;2.10;;;;;;;;;;6272628;22;20435;-81
2023/04/13 17:50:49;;;;;;;7.68;2.22;;;;;;;;;;6267952;22;20700;-81
2023/04/13 18:08:26;;;;;;;8.80;2.25;;;;;;;;;;6148664;23;20044;-79
